Terminal Aerodrome Forecast
Issued by NWS Nashville, TN

Home | Current Version | Previous Version | Text Only | Print | Product List | Glossary On
Versions: 1 2 3 4 5 6 7 8 9 10 11 12 13 14 15 16 17 18 19 20
000
FTUS44 KOHX 280500
TAFBNA
TAF
KBNA 280536Z 2806/2906 30007KT P6SM SCT060
      TEMPO 2808/2811 5SM BR
     FM281400 33010G16KT P6SM FEW040=

USA.gov is the U.S. government's official web portal to all federal, state and local government web resources and services.